createdAt,value
2022-07-27T00:03:18.851Z,18.20
2022-07-27T00:07:21.599Z,18.00
2022-07-27T00:11:25.836Z,17.80
2022-07-27T00:15:28.834Z,17.70
2022-07-27T00:19:31.602Z,17.50
2022-07-27T00:23:34.386Z,17.50
2022-07-27T00:27:38.493Z,17.60
2022-07-27T00:31:41.285Z,17.70
2022-07-27T00:35:44.171Z,17.80
2022-07-27T00:39:46.941Z,17.70
2022-07-27T00:43:58.880Z,17.70
2022-07-27T00:48:01.643Z,17.80
2022-07-27T00:52:04.553Z,17.90
2022-07-27T00:56:08.134Z,17.90
2022-07-27T01:00:13.268Z,17.80
2022-07-27T01:04:16.037Z,17.80
2022-07-27T01:08:19.398Z,17.70
2022-07-27T01:12:22.302Z,17.50
2022-07-27T01:16:27.381Z,17.30
2022-07-27T01:20:30.179Z,17.10
2022-07-27T01:24:34.352Z,17.10
2022-07-27T01:28:37.091Z,17.20
2022-07-27T01:32:39.818Z,17.30
2022-07-27T01:36:42.642Z,17.20
2022-07-27T01:40:46.765Z,17.20
2022-07-27T01:44:49.527Z,17.20
2022-07-27T01:48:52.374Z,17.10
2022-07-27T01:52:55.232Z,17.10
2022-07-27T01:56:59.415Z,17.20
2022-07-27T02:01:02.138Z,17.00
2022-07-27T02:05:05.614Z,17.00
2022-07-27T02:09:08.787Z,17.00
2022-07-27T02:13:15.375Z,16.80
2022-07-27T02:17:25.853Z,16.80
2022-07-27T02:21:32.476Z,16.40
2022-07-27T02:25:36.112Z,16.40
2022-07-27T02:29:40.246Z,16.70
2022-07-27T02:33:42.988Z,16.60
2022-07-27T02:37:45.762Z,16.60
2022-07-27T02:41:49.230Z,16.70
2022-07-27T02:45:53.675Z,16.90
2022-07-27T02:49:56.482Z,17.00
2022-07-27T02:53:59.252Z,16.90
2022-07-27T02:58:03.421Z,16.90
2022-07-27T03:02:07.603Z,16.90
2022-07-27T03:06:11.772Z,16.80
2022-07-27T03:10:14.534Z,17.00
2022-07-27T03:14:17.291Z,16.80
2022-07-27T03:18:21.502Z,16.90
2022-07-27T03:22:24.233Z,17.00
2022-07-27T03:26:26.964Z,17.00
2022-07-27T03:30:29.821Z,16.80
2022-07-27T03:34:33.983Z,16.70
2022-07-27T03:38:36.737Z,16.60
2022-07-27T03:42:40.196Z,16.60
2022-07-27T03:46:42.947Z,16.60
2022-07-27T03:50:47.016Z,16.60
2022-07-27T03:54:49.878Z,16.70
2022-07-27T03:58:52.640Z,16.80
2022-07-27T04:02:55.448Z,17.00
2022-07-27T04:06:59.887Z,16.90
2022-07-27T04:11:02.690Z,17.00
2022-07-27T04:15:06.302Z,17.10
2022-07-27T04:19:09.478Z,17.20
2022-07-27T04:23:13.960Z,17.10
2022-07-27T04:27:16.812Z,17.20
2022-07-27T04:31:19.701Z,17.20
2022-07-27T04:35:26.294Z,17.40
2022-07-27T04:39:30.888Z,17.50
2022-07-27T04:43:33.714Z,17.50
2022-07-27T04:47:36.503Z,17.70
2022-07-27T04:51:39.247Z,17.80
2022-07-27T04:55:44.529Z,18.00
2022-07-27T04:59:47.428Z,18.20
2022-07-27T05:03:50.297Z,18.30
2022-07-27T05:07:53.314Z,18.30
2022-07-27T05:11:57.423Z,18.30
2022-07-27T05:16:00.212Z,18.40
2022-07-27T05:20:03.628Z,18.60
2022-07-27T05:24:06.880Z,18.90
2022-07-27T05:28:12.377Z,19.00
2022-07-27T05:32:15.158Z,19.10
2022-07-27T05:36:17.978Z,19.20
2022-07-27T05:40:20.715Z,19.10
2022-07-27T05:44:24.804Z,19.00
2022-07-27T05:48:27.598Z,18.70
2022-07-27T05:52:30.355Z,18.80
2022-07-27T05:56:33.339Z,19.00
2022-07-27T06:00:37.553Z,19.10
2022-07-27T06:04:40.393Z,19.10
2022-07-27T06:08:43.183Z,19.40
2022-07-27T06:12:47.455Z,19.50
2022-07-27T06:16:51.615Z,20.20
2022-07-27T06:20:54.447Z,21.00
2022-07-27T06:24:57.200Z,23.80
2022-07-27T06:29:01.232Z,24.40
2022-07-27T06:33:06.535Z,26.10
2022-07-27T06:37:09.282Z,26.50
2022-07-27T06:41:12.019Z,25.60
2022-07-27T06:45:14.893Z,26.10
2022-07-27T06:49:19.039Z,25.80
2022-07-27T06:53:22.281Z,25.40
2022-07-27T06:57:25.055Z,25.20
2022-07-27T07:01:27.837Z,24.90
2022-07-27T07:05:32.959Z,23.80
2022-07-27T07:09:41.243Z,24.30
2022-07-27T07:13:45.147Z,24.10
2022-07-27T07:17:48.043Z,24.00
2022-07-27T07:21:52.201Z,23.90
2022-07-27T07:25:55.040Z,23.80
2022-07-27T07:29:58.023Z,23.60
2022-07-27T07:34:01.083Z,23.70
2022-07-27T07:38:05.442Z,23.80
2022-07-27T07:42:10.966Z,23.90
2022-07-27T07:46:14.035Z,24.40
2022-07-27T07:50:17.521Z,24.80
2022-07-27T07:54:21.676Z,25.60
2022-07-27T07:58:24.489Z,25.70
2022-07-27T08:02:27.376Z,25.80
2022-07-27T08:06:31.731Z,25.70
2022-07-27T08:10:36.326Z,26.10
2022-07-27T08:14:39.099Z,25.90
2022-07-27T08:18:42.027Z,26.80
2022-07-27T08:22:46.044Z,26.70
2022-07-27T08:26:50.162Z,27.10
2022-07-27T08:30:53.115Z,27.40
2022-07-27T08:34:56.220Z,27.60
2022-07-27T08:39:01.893Z,27.20
2022-07-27T08:43:07.943Z,26.90
2022-07-27T08:47:11.748Z,26.80
2022-07-27T08:51:14.757Z,26.80
2022-07-27T08:55:17.772Z,26.90
2022-07-27T08:59:22.000Z,27.20
2022-07-27T09:03:24.918Z,27.30
2022-07-27T09:07:29.533Z,28.60
2022-07-27T09:11:36.479Z,28.00
2022-07-27T09:16:12.793Z,27.70
2022-07-27T09:20:17.644Z,27.80
2022-07-27T09:24:47.017Z,27.50
2022-07-27T09:28:45.043Z,27.80
2022-07-27T09:32:57.820Z,28.40
2022-07-27T09:37:05.955Z,29.70
2022-07-27T09:41:08.886Z,29.20
2022-07-27T09:45:34.115Z,28.40
2022-07-27T09:49:38.499Z,27.80
2022-07-27T09:53:43.414Z,27.80
2022-07-27T09:57:54.668Z,28.80
2022-07-27T10:01:58.899Z,29.40
2022-07-27T10:06:04.378Z,29.40
2022-07-27T10:10:09.282Z,29.20
2022-07-27T10:14:12.718Z,29.50
2022-07-27T10:18:20.384Z,30.20
2022-07-27T10:22:51.544Z,30.40
2022-07-27T10:26:54.434Z,30.20
2022-07-27T10:31:17.238Z,29.90
2022-07-27T10:35:34.233Z,28.90
2022-07-27T10:39:40.703Z,29.20
2022-07-27T10:43:43.463Z,28.80
2022-07-27T10:47:47.614Z,28.50
2022-07-27T10:51:50.526Z,28.50
2022-07-27T10:55:54.659Z,29.00
2022-07-27T11:00:08.709Z,28.80
2022-07-27T11:04:14.921Z,28.70
2022-07-27T11:08:38.189Z,28.20
2022-07-27T11:12:44.306Z,28.60
2022-07-27T11:16:55.480Z,29.20
2022-07-27T11:21:14.598Z,29.60
2022-07-27T11:25:17.483Z,29.80
2022-07-27T11:29:24.263Z,31.20
2022-07-27T11:33:27.414Z,31.90
2022-07-27T11:37:30.159Z,30.40
2022-07-27T11:41:55.821Z,29.90
2022-07-27T11:45:58.887Z,29.80
2022-07-27T11:50:07.219Z,30.20
2022-07-27T11:54:11.892Z,31.40
2022-07-27T11:58:18.306Z,31.90
2022-07-27T12:02:23.115Z,30.10
2022-07-27T12:06:26.043Z,30.10
2022-07-27T12:10:28.787Z,29.70
2022-07-27T12:14:37.643Z,29.00
2022-07-27T12:18:44.976Z,28.40
2022-07-27T12:22:49.112Z,27.80
2022-07-27T12:27:06.589Z,27.20
2022-07-27T12:31:18.245Z,27.10
2022-07-27T12:35:31.542Z,27.60
2022-07-27T12:39:37.187Z,27.80
2022-07-27T12:43:39.957Z,29.30
2022-07-27T12:47:42.930Z,32.00
2022-07-27T12:51:47.039Z,30.70
2022-07-27T12:55:49.857Z,29.30
2022-07-27T12:59:52.740Z,32.50
2022-07-27T13:03:55.516Z,29.80
2022-07-27T13:08:00.006Z,29.70
2022-07-27T13:12:03.525Z,30.50
2022-07-27T13:16:06.685Z,30.60
2022-07-27T13:20:11.304Z,29.90
2022-07-27T13:24:15.777Z,29.00
2022-07-27T13:28:20.165Z,28.60
2022-07-27T13:32:23.317Z,28.80
2022-07-27T13:36:26.131Z,28.40
2022-07-27T13:40:30.385Z,28.40
2022-07-27T13:45:02.111Z,30.00
2022-07-27T13:48:56.161Z,30.10
2022-07-27T13:52:58.939Z,30.50
2022-07-27T13:57:03.058Z,30.10
2022-07-27T14:01:07.789Z,29.40
2022-07-27T14:05:13.044Z,28.20
2022-07-27T14:09:17.809Z,27.80
2022-07-27T14:13:24.740Z,27.40
2022-07-27T14:17:27.571Z,27.40
2022-07-27T14:21:31.601Z,27.20
2022-07-27T14:25:35.246Z,27.60
2022-07-27T14:29:39.405Z,28.80
2022-07-27T14:33:42.228Z,29.40
2022-07-27T14:37:45.496Z,30.00
2022-07-27T14:41:48.277Z,30.30
2022-07-27T14:45:52.479Z,29.80
2022-07-27T14:49:55.380Z,30.00
2022-07-27T14:53:58.202Z,30.50
2022-07-27T14:58:01.047Z,29.00
2022-07-27T15:02:06.057Z,28.40
2022-07-27T15:06:08.893Z,28.40
2022-07-27T15:10:11.709Z,28.50
2022-07-27T15:14:14.524Z,27.90
2022-07-27T15:18:20.949Z,27.70
2022-07-27T15:22:24.780Z,27.30
2022-07-27T15:26:27.631Z,27.40
2022-07-27T15:30:33.747Z,26.90
2022-07-27T15:34:40.774Z,26.50
2022-07-27T15:38:43.555Z,26.50
2022-07-27T15:42:46.451Z,26.60
2022-07-27T15:46:49.690Z,26.80
2022-07-27T15:50:54.715Z,26.80
2022-07-27T15:54:57.481Z,26.70
2022-07-27T15:59:00.285Z,26.40
2022-07-27T16:03:03.165Z,26.30
2022-07-27T16:07:07.266Z,26.30
2022-07-27T16:11:10.205Z,26.20
2022-07-27T16:15:13.004Z,26.20
2022-07-27T16:19:15.950Z,26.40
2022-07-27T16:23:21.657Z,26.30
2022-07-27T16:27:24.918Z,26.30
2022-07-27T16:31:29.078Z,26.40
2022-07-27T16:35:34.448Z,26.40
2022-07-27T16:39:39.536Z,26.10
2022-07-27T16:43:42.320Z,26.20
2022-07-27T16:47:45.130Z,26.00
2022-07-27T16:51:48.730Z,25.70
2022-07-27T16:55:52.997Z,25.40
2022-07-27T16:59:55.794Z,25.40
2022-07-27T17:03:59.020Z,25.50
2022-07-27T17:08:01.936Z,25.70
2022-07-27T17:12:06.526Z,26.00
2022-07-27T17:16:09.489Z,25.80
2022-07-27T17:20:13.036Z,25.70
2022-07-27T17:24:18.185Z,25.60
2022-07-27T17:28:25.481Z,25.50
2022-07-27T17:32:28.258Z,25.40
2022-07-27T17:36:31.126Z,25.00
2022-07-27T17:40:34.006Z,24.90
2022-07-27T17:44:39.332Z,24.70
2022-07-27T17:48:42.299Z,24.60
2022-07-27T17:52:45.177Z,24.60
2022-07-27T17:56:47.950Z,24.50
2022-07-27T18:00:52.122Z,24.40
2022-07-27T18:04:54.962Z,24.30
2022-07-27T18:08:57.712Z,24.20
2022-07-27T18:13:00.527Z,24.10
2022-07-27T18:17:04.784Z,23.90
2022-07-27T18:21:08.594Z,23.80
2022-07-27T18:25:11.878Z,23.70
2022-07-27T18:29:16.208Z,23.50
2022-07-27T18:33:20.958Z,23.30
2022-07-27T18:37:24.040Z,23.20
2022-07-27T18:41:28.334Z,23.00
2022-07-27T18:45:34.549Z,22.90
2022-07-27T18:49:39.075Z,22.80
2022-07-27T18:53:43.908Z,22.80
2022-07-27T18:57:47.742Z,22.70
2022-07-27T19:01:51.148Z,22.70
2022-07-27T19:05:55.649Z,22.70
2022-07-27T19:09:58.586Z,22.70
2022-07-27T19:14:01.560Z,22.60
2022-07-27T19:18:04.447Z,22.60
2022-07-27T19:22:08.631Z,22.50
2022-07-27T19:26:11.405Z,22.40
2022-07-27T19:30:15.574Z,22.40
2022-07-27T19:34:19.784Z,22.30
2022-07-27T19:38:23.906Z,22.10
2022-07-27T19:42:26.684Z,22.10
2022-07-27T19:46:29.613Z,22.00
2022-07-27T19:50:32.441Z,21.90
2022-07-27T19:54:36.777Z,21.80
2022-07-27T19:58:39.627Z,21.80
2022-07-27T20:02:42.496Z,21.80
2022-07-27T20:06:45.346Z,21.60
2022-07-27T20:10:49.691Z,21.50
2022-07-27T20:14:52.540Z,21.40
2022-07-27T20:18:55.336Z,21.30
2022-07-27T20:22:58.403Z,21.20
2022-07-27T20:27:02.523Z,21.10
2022-07-27T20:31:05.449Z,21.00
2022-07-27T20:35:08.787Z,21.00
2022-07-27T20:39:15.432Z,20.90
2022-07-27T20:43:21.522Z,20.90
2022-07-27T20:47:24.477Z,20.80
2022-07-27T20:51:27.565Z,20.80
2022-07-27T20:55:30.805Z,20.70
2022-07-27T20:59:34.976Z,20.60
2022-07-27T21:03:38.281Z,20.60
2022-07-27T21:07:41.024Z,20.50
2022-07-27T21:11:43.744Z,20.40
2022-07-27T21:15:47.855Z,20.30
2022-07-27T21:19:50.628Z,20.30
2022-07-27T21:24:11.355Z,20.20
2022-07-27T21:28:16.872Z,20.20
2022-07-27T21:32:22.743Z,20.20
2022-07-27T21:36:25.708Z,20.10
2022-07-27T21:40:30.353Z,20.10
2022-07-27T21:44:33.091Z,20.00
2022-07-27T21:48:37.483Z,20.00
2022-07-27T21:52:40.271Z,20.00
2022-07-27T21:56:50.364Z,19.90
2022-07-27T22:00:53.955Z,19.90
2022-07-27T22:04:58.136Z,19.80
2022-07-27T22:09:01.271Z,19.80
2022-07-27T22:13:04.117Z,19.80
2022-07-27T22:17:06.975Z,19.70
2022-07-27T22:21:11.182Z,19.60
2022-07-27T22:25:14.646Z,19.60
2022-07-27T22:29:17.445Z,19.60
2022-07-27T22:33:20.283Z,19.60
2022-07-27T22:37:24.415Z,19.50
2022-07-27T22:41:27.188Z,19.50
2022-07-27T22:45:30.045Z,19.40
2022-07-27T22:49:35.842Z,19.40
2022-07-27T22:53:39.999Z,19.20
2022-07-27T22:57:42.887Z,19.20
2022-07-27T23:01:47.716Z,19.20
2022-07-27T23:05:50.882Z,19.10
2022-07-27T23:09:56.960Z,19.00
2022-07-27T23:14:00.164Z,18.90
2022-07-27T23:18:02.946Z,18.80
2022-07-27T23:22:05.710Z,18.80
2022-07-27T23:26:15.040Z,18.80
2022-07-27T23:30:18.065Z,18.60
2022-07-27T23:34:20.939Z,18.60
2022-07-27T23:38:23.686Z,18.60
2022-07-27T23:42:27.984Z,18.60
2022-07-27T23:46:30.888Z,18.60
2022-07-27T23:50:33.736Z,18.50
2022-07-27T23:54:36.504Z,18.40
2022-07-27T23:58:40.779Z,18.30
